Time;durP1;ratioP1;P1;durP2;ratioP2;P2;SDS_P1;SDS_P2;PMS_P1;PMS_P2;Temp;Humidity;BMP_temperature;BMP_pressure;BME280_temperature;BME280_humidity;BME280_pressure;Samples;Min_cycle;Max_cycle;Signal;HPM_P1;HPM_P2
2021/06/03 00:00:25;;;;;;;6.15;3.67;;;;;;;;;;4958884;28;20118;-77
2021/06/03 00:02:54;;;;;;;7.93;3.80;;;;;;;;;;4976505;28;20019;-77
2021/06/03 00:05:21;;;;;;;7.57;3.83;;;;;;;;;;4977142;28;20083;-78
2021/06/03 00:07:47;;;;;;;12.48;4.00;;;;;;;;;;4980474;28;20022;-77
2021/06/03 00:10:14;;;;;;;5.93;3.67;;;;;;;;;;4978608;28;20023;-78
2021/06/03 00:12:40;;;;;;;6.72;3.45;;;;;;;;;;4981531;28;20431;-77
2021/06/03 00:15:08;;;;;;;6.43;3.47;;;;;;;;;;4981003;28;20101;-77
2021/06/03 00:17:35;;;;;;;6.60;3.60;;;;;;;;;;4983457;28;20046;-78
2021/06/03 00:20:01;;;;;;;6.45;3.40;;;;;;;;;;4977273;28;20038;-76
2021/06/03 00:22:29;;;;;;;6.22;3.25;;;;;;;;;;4974687;28;20058;-76
2021/06/03 00:24:55;;;;;;;5.78;3.50;;;;;;;;;;4972314;28;20395;-76
2021/06/03 00:27:22;;;;;;;8.43;3.83;;;;;;;;;;4972131;28;20105;-76
2021/06/03 00:29:48;;;;;;;6.15;3.88;;;;;;;;;;4958113;28;20027;-76
2021/06/03 00:32:16;;;;;;;5.90;3.80;;;;;;;;;;4973323;28;20480;-76
2021/06/03 00:34:45;;;;;;;7.55;3.80;;;;;;;;;;4972519;28;20053;-76
2021/06/03 00:37:11;;;;;;;5.57;3.53;;;;;;;;;;4971554;28;20030;-76
2021/06/03 00:39:37;;;;;;;7.80;3.60;;;;;;;;;;4972486;28;20109;-76
2021/06/03 00:42:03;;;;;;;6.50;3.47;;;;;;;;;;4974422;28;20058;-76
2021/06/03 00:44:29;;;;;;;6.22;3.72;;;;;;;;;;4973129;28;20098;-76
2021/06/03 00:46:55;;;;;;;7.82;3.90;;;359.00;2048.00;;;;;;4972037;28;20023;-76
2021/06/03 00:49:21;;;;;;;6.72;3.38;;;358.80;2048.00;;;;;;4973981;28;20526;-76
2021/06/03 00:51:46;;;;;;;6.22;3.58;;;358.80;2048.00;;;;;;4989014;28;20068;-76
2021/06/03 00:54:12;;;;;;;5.50;3.60;;;358.80;2073.60;;;;;;4991433;28;20045;-76
2021/06/03 00:56:38;;;;;;;6.72;3.42;;;358.80;2073.60;;;;;;4992894;28;20026;-76
2021/06/03 00:59:04;;;;;;;8.95;3.85;;;358.80;2073.60;;;;;;4993521;28;20038;-76
2021/06/03 01:01:30;;;;;;;5.68;3.70;;;358.80;2073.60;;;;;;4995966;28;20033;-76
2021/06/03 01:03:58;;;;;;;6.93;4.03;;;358.80;2073.60;;;;;;4990616;28;20031;-76
2021/06/03 01:06:24;;;;;;;6.97;3.90;;;358.80;2073.60;;;;;;4991736;28;20037;-76
2021/06/03 01:08:59;;;;;;;6.65;3.75;;;358.80;2099.20;;;;;;4991573;28;20026;-76
2021/06/03 01:11:33;;;;;;;5.57;3.55;;;358.80;2099.20;;;;;;4991405;28;20063;-76
2021/06/03 01:14:23;;;;;;;5.60;3.50;;;358.80;2099.20;;;;;;4991380;28;20038;-76
2021/06/03 01:16:51;;;;;;;5.25;4.00;;;358.70;2099.20;;;;;;4989912;28;20026;-76
2021/06/03 01:19:26;;;;;;;7.93;3.60;;;358.70;2099.20;;;;;;4990827;28;20030;-76
2021/06/03 01:22:21;;;;;;;7.75;3.50;;;358.70;2124.80;;;;;;4974762;28;20030;-76
2021/06/03 01:24:54;;;;;;;5.28;3.58;;;358.70;2099.20;;;;;;4987380;28;20034;-76
2021/06/03 01:27:26;;;;;;;5.72;3.33;;;358.70;2099.20;;;;;;4994392;28;20026;-75
2021/06/03 01:29:56;;;;;;;9.02;3.67;;;358.80;2099.20;;;;;;4998332;28;20118;-76
2021/06/03 01:32:24;;;;;;;8.43;3.70;;;358.80;2099.20;;;;;;4993542;28;20473;-76
2021/06/03 01:34:51;;;;;;;6.28;3.72;;;358.70;2124.80;;;;;;4994177;28;20042;-76
2021/06/03 01:37:18;;;;;;;9.30;3.50;;;358.80;2124.80;;;;;;4995581;28;20033;-77
2021/06/03 01:39:44;;;;;;;9.95;3.40;;;358.80;2124.80;;;;;;4999986;28;20061;-76
2021/06/03 01:42:11;;;;;;;4.78;3.20;;;358.70;2124.80;;;;;;4996235;28;20030;-76
2021/06/03 01:44:39;;;;;;;6.15;3.50;;;358.80;2124.80;;;;;;5000177;28;20113;-76
2021/06/03 01:47:06;;;;;;;7.35;3.70;;;358.80;2124.80;;;;;;4994118;28;20030;-76
2021/06/03 01:49:33;;;;;;;5.13;3.10;;;358.80;2124.80;;;;;;5001141;28;20032;-76
2021/06/03 01:52:03;;;;;;;9.15;3.70;;;358.80;2124.80;;;;;;4994153;28;20067;-76
2021/06/03 01:54:30;;;;;;;7.47;3.50;;;358.80;2124.80;;;;;;4993152;28;20045;-76
2021/06/03 01:56:56;;;;;;;5.28;3.38;;;358.80;2124.80;;;;;;4993999;28;20027;-76
2021/06/03 01:59:22;;;;;;;7.15;3.20;;;358.70;2124.80;;;;;;4994039;28;20022;-76
2021/06/03 02:01:49;;;;;;;4.82;3.70;;;358.80;2124.80;;;;;;4995061;28;20030;-76
2021/06/03 02:04:14;;;;;;;5.07;3.53;;;359.10;2124.80;;;;;;4993636;28;20241;-76
2021/06/03 02:06:41;;;;;;;10.85;3.75;;;358.70;2124.80;;;;;;4995382;28;20034;-76
2021/06/03 02:09:08;;;;;;;5.97;3.47;;;358.70;2124.80;;;;;;4994000;28;20042;-76
2021/06/03 02:11:39;;;;;;;4.70;3.08;;;358.70;2099.20;;;;;;4993824;28;20044;-76
2021/06/03 02:14:09;;;;;;;5.03;3.33;;;358.60;2124.80;;;;;;4993306;28;20093;-76
2021/06/03 02:16:39;;;;;;;4.95;3.15;;;358.60;2124.80;;;;;;4993845;28;20065;-76
2021/06/03 02:19:23;;;;;;;15.48;3.38;;;358.60;2124.80;;;;;;4993677;28;20030;-76
2021/06/03 02:21:50;;;;;;;1306.65;566.40;;;358.60;2124.80;;;;;;4994937;28;20085;-76
2021/06/03 02:24:16;;;;;;;7.88;3.75;;;358.50;2124.80;;;;;;4993145;28;20075;-76
2021/06/03 02:26:43;;;;;;;6.93;4.00;;;358.50;2150.40;;;;;;5000531;28;20108;-75
2021/06/03 02:29:11;;;;;;;7.50;3.63;;;358.50;2150.40;;;;;;4993885;28;20551;-76
2021/06/03 02:31:38;;;;;;;7.75;3.78;;;358.40;2150.40;;;;;;4993696;28;20473;-76
2021/06/03 02:34:05;;;;;;;6.65;3.40;;;358.40;2150.40;;;;;;4992290;28;20585;-76
2021/06/03 02:36:31;;;;;;;7.63;3.65;;;;;;;;;;4993362;28;20038;-77
2021/06/03 02:38:58;;;;;;;6.22;4.28;;;358.40;2150.40;;;;;;4993848;28;20027;-76
2021/06/03 02:41:24;;;;;;;8.50;4.00;;;;;;;;;;4994310;28;20076;-76
2021/06/03 02:43:51;;;;;;;7.20;3.67;;;;;;;;;;4993920;28;20026;-76
2021/06/03 02:46:20;;;;;;;9.85;3.67;;;333.60;2176.00;;;;;;4996119;28;20602;-76
2021/06/03 02:48:46;;;;;;;7.40;3.70;;;333.50;2176.00;;;;;;4992234;28;20034;-76
2021/06/03 02:51:12;;;;;;;5.95;3.90;;;333.50;2329.60;;;;;;4997783;28;20096;-77
2021/06/03 02:53:43;;;;;;;4.97;3.60;;;333.50;2176.00;;;;;;4996277;28;20045;-76
2021/06/03 02:56:09;;;;;;;7.45;4.05;;;333.50;2176.00;;;;;;4994305;28;20695;-76
2021/06/03 02:58:35;;;;;;;6.97;3.97;;;333.50;2176.00;;;;;;4993135;28;20109;-76
2021/06/03 03:01:00;;;;;;;6.35;3.50;;;333.50;2176.00;;;;;;4993761;28;20488;-76
2021/06/03 03:03:26;;;;;;;8.85;3.55;;;333.60;2176.00;;;;;;4994568;28;20476;-76
2021/06/03 03:05:52;;;;;;;7.13;4.20;;;333.60;2176.00;;;;;;4994257;28;20436;-76
2021/06/03 03:08:19;;;;;;;8.90;3.72;;;333.60;2176.00;;;;;;4998539;28;20071;-77
2021/06/03 03:10:52;;;;;;;10.00;3.95;;;333.70;2201.60;;;;;;4993189;28;20078;-76
2021/06/03 03:13:18;;;;;;;5.63;3.50;;;333.70;2201.60;;;;;;4993194;28;20116;-76
2021/06/03 03:15:44;;;;;;;8.02;3.85;;;333.70;2201.60;;;;;;4992328;28;20068;-76
2021/06/03 03:18:10;;;;;;;6.40;3.80;;;333.70;2201.60;;;;;;4992884;28;20045;-76
2021/06/03 03:20:37;;;;;;;6.20;3.78;;;333.70;2201.60;;;;;;4993583;28;20535;-77
2021/06/03 03:23:04;;;;;;;7.53;3.92;;;333.70;2201.60;;;;;;4977359;28;20030;-78
2021/06/03 03:25:30;;;;;;;6.15;3.65;;;333.70;2201.60;;;;;;4998554;28;20034;-77
2021/06/03 03:27:57;;;;;;;6.75;3.45;;;333.70;2201.60;;;;;;4995295;28;20105;-77
2021/06/03 03:30:24;;;;;;;5.60;3.70;;;358.40;2201.60;;;;;;4995386;28;20033;-77
2021/06/03 03:32:51;;;;;;;9.15;3.80;;;358.40;2201.60;;;;;;4995180;28;20029;-77
2021/06/03 03:35:17;;;;;;;5.97;3.67;;;358.40;2227.20;;;;;;4989888;28;20092;-78
2021/06/03 03:37:43;;;;;;;5.20;3.97;;;358.50;2227.20;;;;;;4996605;28;20026;-78
2021/06/03 03:40:13;;;;;;;5.82;3.70;;;358.50;2227.20;;;;;;4996353;28;20113;-77
2021/06/03 03:42:39;;;;;;;5.88;3.83;;;358.60;2227.20;;;;;;4996544;28;20341;-77
2021/06/03 03:45:08;;;;;;;6.18;4.00;;;358.60;2227.20;;;;;;4992791;28;20045;-78
2021/06/03 03:47:34;;;;;;;4.72;3.50;;;358.60;2227.20;;;;;;4995229;28;20085;-77
2021/06/03 03:50:00;;;;;;;5.95;4.30;;;358.60;2227.20;;;;;;4995486;28;20081;-77
2021/06/03 03:52:25;;;;;;;6.18;3.72;;;358.70;2252.80;;;;;;4996506;28;20086;-78
2021/06/03 03:54:51;;;;;;;6.30;4.05;;;358.70;2252.80;;;;;;4996475;28;20814;-77
2021/06/03 03:57:18;;;;;;;4.55;3.60;;;358.70;2252.80;;;;;;4996199;28;20023;-77
2021/06/03 03:59:44;;;;;;;7.60;3.97;;;358.80;2252.80;;;;;;4994698;28;20045;-77
2021/06/03 04:02:10;;;;;;;6.63;3.90;;;358.80;2252.80;;;;;;4996149;28;20037;-77
2021/06/03 04:04:35;;;;;;;5.95;3.65;;;358.90;2252.80;;;;;;4996019;28;20022;-77
2021/06/03 04:07:01;;;;;;;5.47;3.80;;;358.90;2252.80;;;;;;4994254;28;20487;-77
2021/06/03 04:09:27;;;;;;;7.07;3.85;;;358.90;2252.80;;;;;;4995882;28;20034;-77
2021/06/03 04:11:53;;;;;;;5.10;3.60;;;359.10;2304.00;;;;;;4996459;28;20029;-77
2021/06/03 04:14:19;;;;;;;8.27;3.97;;;359.00;2252.80;;;;;;4996863;28;20042;-78
2021/06/03 04:16:46;;;;;;;11.50;4.32;;;359.00;2252.80;;;;;;5003186;28;20033;-77
2021/06/03 04:19:11;;;;;;;7.90;3.85;;;359.00;2252.80;;;;;;4996704;28;20395;-77
2021/06/03 04:21:37;;;;;;;5.88;4.15;;;359.00;2252.80;;;;;;4996935;28;20022;-77
2021/06/03 04:24:04;;;;;;;8.73;4.32;;;359.10;2278.40;;;;;;4996346;28;20468;-77
2021/06/03 04:26:30;;;;;;;7.95;4.18;;;359.10;2278.40;;;;;;4995905;28;20121;-78
2021/06/03 04:28:56;;;;;;;9.38;4.00;;;;;;;;;;4998695;28;20057;-78
2021/06/03 04:31:22;;;;;;;7.55;3.92;;;;;;;;;;4989670;28;20031;-77
2021/06/03 04:33:49;;;;;;;8.48;3.97;;;;;;;;;;4991109;28;20030;-77
2021/06/03 04:36:15;;;;;;;9.20;4.03;;;;;;;;;;4993759;28;20050;-77
2021/06/03 04:38:42;;;;;;;6.20;4.13;;;;;;;;;;4993121;28;20022;-76
2021/06/03 04:41:08;;;;;;;9.77;4.47;;;;;;;;;;4988999;28;20501;-76
2021/06/03 04:43:36;;;;;;;13.45;5.53;;;;;;;;;;4994460;28;20108;-75
2021/06/03 04:46:02;;;;;;;11.10;5.20;;;;;;;;;;4992517;28;20034;-75
2021/06/03 04:48:29;;;;;;;27.02;6.75;;;;;;;;;;4989067;28;20491;-75
2021/06/03 04:50:55;;;;;;;13.57;7.88;;;;;;;;;;4986154;28;20042;-75
2021/06/03 04:53:21;;;;;;;11.18;5.70;;;;;;;;;;4984332;28;20026;-74
2021/06/03 04:55:47;;;;;;;10.18;4.55;;;;;;;;;;5008567;28;20058;-74
2021/06/03 04:58:13;;;;;;;11.65;4.30;;;;;;;;;;4988564;28;20018;-72
2021/06/03 05:00:40;;;;;;;11.15;4.63;;;;;;;;;;4994442;28;20101;-75
2021/06/03 05:03:08;;;;;;;13.90;5.00;;;;;;;;;;5004818;28;20006;-75
2021/06/03 05:05:34;;;;;;;11.77;4.80;;;;;;;;;;4988752;28;20042;-74
2021/06/03 05:08:00;;;;;;;10.82;4.60;;;;;;;;;;4995080;28;20027;-71
2021/06/03 05:10:28;;;;;;;10.60;4.85;;;;;;;;;;4994935;28;20026;-75
2021/06/03 05:12:54;;;;;;;7.20;4.43;;;;;;;;;;4998238;28;20034;-74
2021/06/03 05:15:21;;;;;;;6.72;3.97;;;;;;;;;;4985909;28;20052;-73
2021/06/03 05:17:48;;;;;;;6.75;3.97;;;;;;;;;;4995475;28;20022;-72
2021/06/03 05:20:16;;;;;;;7.32;3.70;;;;;;;;;;4990036;28;20022;-73
2021/06/03 05:22:42;;;;;;;10.57;4.65;;;;;;;;;;4992735;28;20046;-72
2021/06/03 05:25:10;;;;;;;7.72;4.13;;;;;;;;;;4995252;28;20403;-72
2021/06/03 05:27:36;;;;;;;7.80;4.22;;;;;;;;;;4995015;28;20062;-72
2021/06/03 05:30:04;;;;;;;11.43;3.95;;;;;;;;;;4989877;28;20037;-72
2021/06/03 05:32:31;;;;;;;7.22;4.18;;;;;;;;;;4984852;28;20102;-71
2021/06/03 05:34:57;;;;;;;9.27;4.47;;;;;;;;;;4994782;28;20069;-74
2021/06/03 05:37:25;;;;;;;11.00;4.60;;;;;;;;;;4988053;28;20022;-73
2021/06/03 05:39:51;;;;;;;10.57;4.80;;;;;;;;;;4984889;28;20540;-72
2021/06/03 05:42:18;;;;;;;15.50;4.70;;;;;;;;;;4989397;28;20023;-72
2021/06/03 05:44:44;;;;;;;12.95;4.20;;;;;;;;;;4994979;28;20150;-71
2021/06/03 05:47:10;;;;;;;6.10;3.97;;;;;;;;;;4989703;28;20459;-71
2021/06/03 05:49:36;;;;;;;8.23;4.35;;;;;;;;;;4993375;28;20030;-75
2021/06/03 05:52:03;;;;;;;11.93;4.30;;;;;;;;;;4986551;28;20058;-71
2021/06/03 05:54:29;;;;;;;7.18;3.67;;;;;;;;;;4989498;28;20045;-92
2021/06/03 05:56:56;;;;;;;9.52;4.00;;;;;;;;;;4988538;28;20097;-85
2021/06/03 05:59:22;;;;;;;8.65;3.72;;;;;;;;;;4989689;28;20057;-85
2021/06/03 06:01:48;;;;;;;11.63;4.00;;;;;;;;;;4989694;28;20607;-78
2021/06/03 06:07:06;;;;;;;8.55;4.70;;;;;;;;;;4910238;29;20439;-79
2021/06/03 06:09:32;;;;;;;11.07;4.47;;;;;;;;;;4895097;29;20085;-83
2021/06/03 06:11:58;;;;;;;8.18;4.15;;;;;;;;;;4909548;29;20040;-77
2021/06/03 06:14:24;;;;;;;9.10;4.40;;;;;;;;;;4912357;29;20068;-75
2021/06/03 06:16:51;;;;;;;15.88;4.38;;;;;;;;;;4906624;29;20027;-75
2021/06/03 06:19:17;;;;;;;8.15;4.32;;;;;;;;;;4901935;29;20071;-75
2021/06/03 06:21:43;;;;;;;15.65;4.22;;;;;;;;;;4902710;29;20619;-75
2021/06/03 06:24:12;;;;;;;10.13;4.18;;;;;;;;;;4911890;29;20075;-76
2021/06/03 06:26:38;;;;;;;8.43;4.60;;;;;;;;;;4918684;29;20028;-77
2021/06/03 06:29:04;;;;;;;11.60;4.38;;;;;;;;;;4905457;29;20036;-75
2021/06/03 06:31:30;;;;;;;12.30;4.80;;;;;;;;;;4910130;29;20226;-75
2021/06/03 06:33:56;;;;;;;11.32;4.38;;;;;;;;;;4906510;29;20533;-74
2021/06/03 06:36:25;;;;;;;13.40;5.45;;;;;;;;;;4929100;29;20048;-81
2021/06/03 06:38:52;;;;;;;12.18;4.60;;;;;;;;;;4910026;29;20044;-76
2021/06/03 06:41:18;;;;;;;15.70;4.90;;;;;;;;;;4896534;29;20031;-77
2021/06/03 06:43:44;;;;;;;13.07;4.60;;;;;;;;;;4940573;28;20110;-78
2021/06/03 06:46:10;;;;;;;15.57;4.82;;;;;;;;;;4977605;28;20550;-77
2021/06/03 06:48:37;;;;;;;13.75;4.85;;;;;;;;;;4992316;28;20093;-80
2021/06/03 06:51:06;;;;;;;10.48;4.50;;;;;;;;;;4973660;28;20482;-77
2021/06/03 06:53:32;;;;;;;16.83;4.95;;;;;;;;;;4972402;28;20030;-78
2021/06/03 06:55:58;;;;;;;13.02;4.70;;;;;;;;;;4992731;28;20038;-83
2021/06/03 06:58:24;;;;;;;7.72;4.60;;;;;;;;;;4975345;28;20085;-80
2021/06/03 07:00:50;;;;;;;12.00;4.63;;;;;;;;;;4990266;28;20027;-82
2021/06/03 07:03:17;;;;;;;9.40;4.03;;;;;;;;;;4992613;28;20029;-79
2021/06/03 07:05:45;;;;;;;11.50;4.50;;;;;;;;;;4985982;28;20079;-78
2021/06/03 07:08:11;;;;;;;12.77;5.28;;;;;;;;;;4985080;28;20034;-80
2021/06/03 07:10:38;;;;;;;13.27;4.53;;;;;;;;;;4981329;28;20070;-79
2021/06/03 07:13:04;;;;;;;40.30;26.13;;;;;;;;;;4985916;28;20045;-78
2021/06/03 07:15:30;;;;;;;4.03;3.67;;;;;;;;;;4986496;28;20049;-75
2021/06/03 07:17:56;;;;;;;72.20;63.67;;;;;;;;;;4986019;28;20041;-78
2021/06/03 07:20:23;;;;;;;19.33;6.05;;;;;;;;;;4981702;28;20105;-78
2021/06/03 07:22:51;;;;;;;37.10;6.25;;;;;;;;;;4981588;28;20022;-80
2021/06/03 07:25:19;;;;;;;26.88;16.45;;;;;;;;;;4961849;28;20038;-84
2021/06/03 07:27:45;;;;;;;20.52;7.72;;;;;;;;;;4985209;28;20084;-77
2021/06/03 07:30:12;;;;;;;141.05;88.30;;;;;;;;;;4977742;28;20508;-77
2021/06/03 07:32:39;;;;;;;8.45;3.20;;;;;;;;;;4988105;28;20029;-78
2021/06/03 07:35:09;;;;;;;14.15;5.53;;;;;;;;;;4967180;28;20413;-83
2021/06/03 07:37:35;;;;;;;12.77;5.32;;;;;;;;;;4991974;28;20018;-82
2021/06/03 07:40:01;;;;;;;9.90;4.30;;;;;;;;;;4990606;28;20027;-80
2021/06/03 07:42:27;;;;;;;13.07;5.20;;;;;;;;;;4989236;28;20034;-80
2021/06/03 07:44:53;;;;;;;21.33;5.05;;;;;;;;;;4988951;28;20606;-73
2021/06/03 07:47:19;;;;;;;13.00;4.20;;;;;;;;;;4988302;28;20369;-78
2021/06/03 07:49:45;;;;;;;14.55;4.47;;;;;;;;;;4987458;28;20101;-74
2021/06/03 07:52:14;;;;;;;6.65;4.03;;;;;;;;;;4986867;28;20046;-73
2021/06/03 07:54:40;;;;;;;10.98;4.07;;;;;;;;;;4984377;28;20023;-73
2021/06/03 07:57:06;;;;;;;12.13;4.07;;;;;;;;;;4988899;28;20117;-73
2021/06/03 07:59:32;;;;;;;13.38;4.05;;;;;;;;;;4988585;28;20117;-73
2021/06/03 08:01:58;;;;;;;18.50;7.03;;;;;;;;;;4996558;28;20030;-73
2021/06/03 08:04:24;;;;;;;10.60;7.32;;;;;;;;;;4992457;28;20044;-73
2021/06/03 08:06:50;;;;;;;16.00;11.18;;;;;;;;;;4991713;28;20507;-72
2021/06/03 08:09:17;;;;;;;7.18;4.05;;;;;;;;;;4992091;28;20041;-73
2021/06/03 08:11:44;;;;;;;14.45;3.88;;;;;;;;;;4991260;28;20032;-73
2021/06/03 08:14:11;;;;;;;10.48;6.53;;;;;;;;;;4991907;28;20483;-73
2021/06/03 08:16:37;;;;;;;192.65;114.75;;;;;;;;;;4992027;28;21523;-74
2021/06/03 08:19:05;;;;;;;12.52;3.42;;;;;;;;;;4994708;28;20033;-72
2021/06/03 08:21:33;;;;;;;7.55;3.40;;;;;;;;;;4992252;28;20521;-72
2021/06/03 08:23:59;;;;;;;7.28;3.30;;;;;;;;;;4997363;28;20120;-73
2021/06/03 08:26:28;;;;;;;7.57;3.45;;;;;;;;;;4992463;28;20657;-73
2021/06/03 08:28:56;;;;;;;5.05;3.38;;;;;;;;;;4992376;28;20022;-73
2021/06/03 08:31:22;;;;;;;17.13;3.60;;;;;;;;;;4997059;28;20030;-73
2021/06/03 08:33:48;;;;;;;21.77;3.47;;;;;;;;;;4989772;28;20019;-76
2021/06/03 08:36:17;;;;;;;9.32;3.17;;;;;;;;;;4991889;28;20034;-73
2021/06/03 08:38:43;;;;;;;7.18;3.10;;;;;;;;;;4990939;28;20077;-73
2021/06/03 08:41:10;;;;;;;11.25;10.20;;;;;;;;;;4991745;28;20022;-74
2021/06/03 08:43:38;;;;;;;6.28;3.10;;;;;;;;;;4973201;28;20503;-73
2021/06/03 08:46:05;;;;;;;5.88;3.38;;;;;;;;;;4991585;28;20497;-73
2021/06/03 08:48:31;;;;;;;7.63;2.95;;;;;;;;;;4994015;28;20077;-72
2021/06/03 08:51:00;;;;;;;8.23;3.25;;;;;;;;;;4991513;28;20050;-73
2021/06/03 08:53:26;;;;;;;9.60;3.53;;;;;;;;;;4991754;28;20036;-73
2021/06/03 08:58:37;;;;;;;5.28;3.15;;;;;;;;;;4983988;28;20037;-73
2021/06/03 09:01:05;;;;;;;5.97;3.10;;;;;;;;;;4982199;28;20044;-72
2021/06/03 09:03:31;;;;;;;11.20;5.28;;;;;;;;;;4983651;28;20031;-73
2021/06/03 09:05:57;;;;;;;16.67;8.13;;;;;;;;;;4979055;28;20030;-73
2021/06/03 09:08:27;;;;;;;6.43;3.00;;;;;;;;;;4986027;28;20026;-72
2021/06/03 09:10:58;;;;;;;7.78;3.58;;;;;;;;;;4980356;28;20026;-72
2021/06/03 09:13:33;;;;;;;11.75;3.25;;;;;;;;;;4986284;28;20081;-73
2021/06/03 09:16:01;;;;;;;9.13;5.68;;;;;;;;;;4996718;28;20504;-73
2021/06/03 09:18:36;;;;;;;34.50;30.88;;;;;;;;;;4983120;28;20019;-76
2021/06/03 09:21:17;;;;;;;13.45;4.53;;;;;;;;;;4983197;28;20022;-72
2021/06/03 09:23:56;;;;;;;24.77;4.63;;;;;;;;;;4982040;28;20038;-77
2021/06/03 09:26:23;;;;;;;10.40;3.53;;;;;;;;;;4987348;28;20026;-82
2021/06/03 09:28:52;;;;;;;8.65;3.72;;;;;;;;;;4971166;28;20042;-84
2021/06/03 09:31:21;;;;;;;7.22;3.38;;;;;;;;;;4986595;28;20035;-74
2021/06/03 09:33:59;;;;;;;7.38;3.33;;;;;;;;;;4989248;28;20078;-74
2021/06/03 09:36:25;;;;;;;7.20;3.47;;;;;;;;;;4964781;28;20049;-75
2021/06/03 09:38:53;;;;;;;6.05;2.97;;;;;;;;;;4989231;28;20022;-73
2021/06/03 09:41:20;;;;;;;7.03;3.55;;;;;;;;;;4988383;28;20040;-80
2021/06/03 09:43:46;;;;;;;7.50;3.15;;;;;;;;;;4988011;28;20023;-76
2021/06/03 09:46:17;;;;;;;11.75;3.08;;;;;;;;;;4971822;28;20376;-85
2021/06/03 09:48:47;;;;;;;8.85;3.40;;;;;;;;;;4991380;28;20033;-80
2021/06/03 09:51:22;;;;;;;10.63;9.52;;;;;;;;;;4970003;28;20053;-79
2021/06/03 09:53:51;;;;;;;8.05;3.70;;;;;;;;;;4989800;28;20097;-72
2021/06/03 09:56:25;;;;;;;5.60;2.95;;;;;;;;;;4989902;28;20060;-74
2021/06/03 09:58:52;;;;;;;7.63;3.50;;;;;;;;;;4989706;28;20029;-85
2021/06/03 10:01:36;;;;;;;5.55;3.22;;;;;;;;;;4992787;28;20030;-76
2021/06/03 10:04:03;;;;;;;8.20;2.95;;;;;;;;;;4986630;28;20082;-82
2021/06/03 10:06:29;;;;;;;5.43;3.60;;;;;;;;;;4994681;28;20040;-75
2021/06/03 10:08:56;;;;;;;5.50;3.00;;;;;;;;;;4988214;28;20041;-79
2021/06/03 10:11:54;;;;;;;6.40;3.10;;;;;;;;;;4967333;28;20027;-76
2021/06/03 10:14:21;;;;;;;4.95;2.97;;;;;;;;;;4919878;29;20040;-74
2021/06/03 10:16:47;;;;;;;7.40;3.33;;;;;;;;;;4917544;29;20040;-76
2021/06/03 10:19:17;;;;;;;9.07;3.20;;;;;;;;;;4915105;29;20028;-74
2021/06/03 10:21:43;;;;;;;12.20;3.53;;;;;;;;;;4913760;29;20048;-77
2021/06/03 10:24:09;;;;;;;16.25;3.28;;;;;;;;;;4917715;29;20048;-76
2021/06/03 10:26:53;;;;;;;8.25;2.92;;;;;;;;;;4913502;29;20028;-85
2021/06/03 10:29:19;;;;;;;7.22;3.22;;;;;;;;;;4913075;29;20036;-75
2021/06/03 10:31:45;;;;;;;9.73;3.15;;;;;;;;;;4916459;29;20040;-74
2021/06/03 10:34:12;;;;;;;7.07;2.90;;;;;;;;;;4913926;29;20068;-83
2021/06/03 10:36:38;;;;;;;5.28;3.03;;;;;;;;;;4909245;29;20052;-73
2021/06/03 10:39:04;;;;;;;6.13;2.97;;;;;;;;;;4913402;29;20040;-73
2021/06/03 10:41:30;;;;;;;6.32;3.17;;;;;;;;;;4918704;29;20083;-74
2021/06/03 10:43:58;;;;;;;8.30;3.38;;;;;;;;;;4918730;29;20549;-72
2021/06/03 10:46:24;;;;;;;9.82;3.15;;;;;;;;;;4915584;29;20028;-75
2021/06/03 10:48:50;;;;;;;5.70;3.22;;;;;;;;;;4925795;28;20028;-75
2021/06/03 10:51:20;;;;;;;14.18;3.60;;;;;;;;;;4993589;28;20038;-73
2021/06/03 10:53:48;;;;;;;6.72;3.10;;;;;;;;;;4992822;28;20109;-73
2021/06/03 10:56:15;;;;;;;5.10;3.33;;;;;;;;;;4994608;28;20030;-72
2021/06/03 10:58:43;;;;;;;13.48;3.95;;;;;;;;;;4991482;28;20429;-77
2021/06/03 11:01:17;;;;;;;5.60;2.88;;;;;;;;;;4994701;28;20390;-73
2021/06/03 11:03:46;;;;;;;5.75;3.00;;;;;;;;;;4990088;28;20026;-74
2021/06/03 11:06:21;;;;;;;7.50;3.03;;;;;;;;;;4990705;28;20471;-74
2021/06/03 11:08:52;;;;;;;6.95;3.10;;;;;;;;;;4993554;28;20027;-74
2021/06/03 11:11:18;;;;;;;7.15;3.25;;;;;;;;;;4994726;28;20038;-75
2021/06/03 11:13:49;;;;;;;3.85;2.63;;;;;;;;;;4993293;28;20045;-75
2021/06/03 11:16:19;;;;;;;11.05;3.00;;;;;;;;;;4989945;28;20496;-74
2021/06/03 11:18:45;;;;;;;5.15;3.20;;;;;;;;;;4993401;28;20391;-73
2021/06/03 11:21:30;;;;;;;9.18;3.00;;;;;;;;;;4987275;28;20109;-72
2021/06/03 11:23:57;;;;;;;8.20;3.50;;;;;;;;;;4996265;28;20042;-94
2021/06/03 11:26:41;;;;;;;4.97;2.85;;;;;;;;;;4991319;28;20026;-78
2021/06/03 11:29:27;;;;;;;15.23;3.40;;;;;;;;;;4991842;28;20053;-75
2021/06/03 11:32:04;;;;;;;5.20;3.60;;;;;;;;;;4991899;28;20018;-80
2021/06/03 11:34:42;;;;;;;11.10;3.58;;;;;;;;;;4992701;28;20104;-76
2021/06/03 11:37:11;;;;;;;13.45;3.67;;;;;;;;;;4988646;28;20042;-78
2021/06/03 11:39:57;;;;;;;28.63;26.27;;;;;;;;;;4998493;28;20165;-77
2021/06/03 11:42:24;;;;;;;39.95;36.28;;;;;;;;;;4991924;28;20027;-74
2021/06/03 11:45:03;;;;;;;6.65;3.10;;;;;;;;;;4981244;28;20055;-80
2021/06/03 11:47:39;;;;;;;4.50;2.90;;;;;;;;;;4986182;28;20037;-85
2021/06/03 11:50:05;;;;;;;6.20;3.38;;;;;;;;;;4981197;28;20073;-80
2021/06/03 11:52:32;;;;;;;8.27;6.40;;;;;;;;;;4988626;28;20046;-77
2021/06/03 11:55:03;;;;;;;10.32;8.15;;;;;;;;;;4985982;28;20062;-84
2021/06/03 11:57:31;;;;;;;9.57;3.30;;;;;;;;;;4990296;28;20022;-80
2021/06/03 12:00:06;;;;;;;8.32;3.40;;;;;;;;;;4986509;28;20030;-78
2021/06/03 12:02:39;;;;;;;7.22;4.10;;;;;;;;;;4988885;28;20038;-80
2021/06/03 12:05:13;;;;;;;6.22;2.95;;;;;;;;;;4991466;28;20034;-78
2021/06/03 12:07:42;;;;;;;5.13;2.90;;;;;;;;;;4992416;28;20046;-76
2021/06/03 12:10:09;;;;;;;10.52;3.22;;;;;;;;;;4991430;28;20070;-75
2021/06/03 12:12:36;;;;;;;8.63;2.92;;;;;;;;;;4994886;28;20518;-76
2021/06/03 12:15:03;;;;;;;6.80;2.90;;;;;;;;;;4992383;28;20395;-77
2021/06/03 12:17:29;;;;;;;5.70;3.03;;;;;;;;;;4990520;28;20029;-79
2021/06/03 12:19:56;;;;;;;5.68;2.95;;;;;;;;;;5004343;28;20476;-81
2021/06/03 12:22:25;;;;;;;5.78;3.05;;;;;;;;;;4994505;28;20041;-78
2021/06/03 12:24:56;;;;;;;4.50;3.80;;;;;;;;;;4982852;28;20236;-79
2021/06/03 12:27:25;;;;;;;12.30;5.13;;;;;;;;;;4992309;28;20023;-80
2021/06/03 12:29:51;;;;;;;21.98;3.90;;;;;;;;;;4987643;28;20193;-77
2021/06/03 12:32:18;;;;;;;8.15;7.07;;;;;;;;;;4989127;28;20033;-75
2021/06/03 12:34:46;;;;;;;4.82;2.90;;;;;;;;;;4991740;28;20014;-77
2021/06/03 12:37:21;;;;;;;12.07;10.93;;;;;;;;;;4988669;28;20042;-77
2021/06/03 12:39:47;;;;;;;7.90;3.08;;;;;;;;;;4996723;28;20104;-78
2021/06/03 12:42:17;;;;;;;10.20;3.40;;;;;;;;;;4992279;28;20121;-77
2021/06/03 12:44:53;;;;;;;8.73;3.28;;;;;;;;;;4991926;28;20536;-75
2021/06/03 12:47:19;;;;;;;8.18;3.17;;;;;;;;;;4990587;28;20507;-74
2021/06/03 12:49:45;;;;;;;7.35;3.10;;;;;;;;;;4988890;28;20022;-74
2021/06/03 12:52:11;;;;;;;8.73;3.20;;;;;;;;;;4991469;28;20036;-76
2021/06/03 12:54:44;;;;;;;5.45;3.20;;;;;;;;;;4992045;28;20025;-76
2021/06/03 12:57:14;;;;;;;9.15;3.20;;;;;;;;;;4991303;28;20439;-80
2021/06/03 12:59:41;;;;;;;5.90;2.95;;;;;;;;;;4990474;28;20026;-77
2021/06/03 13:02:10;;;;;;;5.57;3.15;;;;;;;;;;4991454;28;20033;-78
2021/06/03 13:04:36;;;;;;;8.88;3.25;;;;;;;;;;4993522;28;20507;-74
2021/06/03 13:07:02;;;;;;;12.93;3.47;;;;;;;;;;4991508;28;20464;-76
2021/06/03 13:09:32;;;;;;;9.07;2.83;;;;;;;;;;4990933;28;20050;-73
2021/06/03 13:12:08;;;;;;;10.48;3.30;;;;;;;;;;4994686;28;20388;-76
2021/06/03 13:14:45;;;;;;;40.83;4.57;;;;;;;;;;4991466;28;20015;-77
2021/06/03 13:17:12;;;;;;;7.03;3.20;;;;;;;;;;4989841;28;20118;-76
2021/06/03 13:19:39;;;;;;;7.28;3.10;;;;;;;;;;4994783;28;20476;-77
2021/06/03 13:22:06;;;;;;;9.43;3.55;;;;;;;;;;4996356;28;20034;-77
2021/06/03 13:24:34;;;;;;;23.17;20.58;;;;;;;;;;4996506;28;20050;-80
2021/06/03 13:27:06;;;;;;;11.13;3.35;;;;;;;;;;4985729;28;20403;-78
2021/06/03 13:29:33;;;;;;;11.40;3.10;;;;;;;;;;4995038;28;20038;-75
2021/06/03 13:32:00;;;;;;;12.57;6.30;;;;;;;;;;4975833;28;20023;-75
2021/06/03 13:34:28;;;;;;;29.48;15.98;;;;;;;;;;4994118;28;20030;-74
2021/06/03 13:37:01;;;;;;;5.40;2.85;;;;;;;;;;4994885;28;20038;-77
2021/06/03 13:39:29;;;;;;;;;;;;;;;;;;4988990;28;20101;-77
2021/06/03 13:41:56;;;;;;;9.48;3.28;;;;;;;;;;4997537;28;19913;-76
2021/06/03 13:44:23;;;;;;;11.15;5.57;;;;;;;;;;4996716;28;20505;-74
2021/06/03 13:46:49;;;;;;;11.57;5.03;;;;;;;;;;4995207;28;20019;-77
2021/06/03 13:49:30;;;;;;;8.90;3.53;;;;;;;;;;4992775;28;20026;-78
2021/06/03 13:52:04;;;;;;;9.93;7.28;;;;;;;;;;4994551;28;20130;-77
2021/06/03 13:54:30;;;;;;;112.00;72.35;;;;;;;;;;4995846;28;20076;-80
2021/06/03 13:56:56;;;;;;;10.95;3.20;;;;;;;;;;4994307;28;20128;-77
2021/06/03 13:59:22;;;;;;;11.63;9.00;;;;;;;;;;4994464;28;20060;-77
2021/06/03 14:01:51;;;;;;;7.45;3.03;;;;;;;;;;4994533;28;21252;-78
2021/06/03 14:04:21;;;;;;;10.77;3.95;;;;;;;;;;4993275;28;20050;-77
2021/06/03 14:06:52;;;;;;;14.98;13.45;;;;;;;;;;5000383;28;20070;-79